sensor_id;sensor_type;location;lat;lon;timestamp;pressure;altitude;pressure_sealevel;temperature;humidity
54870;BME280;40756;-37.950;145.008;2023-04-30T00:00:10;101599.65;;;12.46;53.15
54870;BME280;40756;-37.950;145.008;2023-04-30T00:02:40;101598.18;;;12.46;53.25
54870;BME280;40756;-37.950;145.008;2023-04-30T00:05:10;101592.01;;;12.71;52.76
54870;BME280;40756;-37.950;145.008;2023-04-30T00:07:40;101589.87;;;12.66;52.04
54870;BME280;40756;-37.950;145.008;2023-04-30T00:10:10;101587.25;;;13.28;52.07
54870;BME280;40756;-37.950;145.008;2023-04-30T00:12:39;101586.97;;;12.91;52.10
54870;BME280;40756;-37.950;145.008;2023-04-30T00:15:10;101583.54;;;12.57;53.15
54870;BME280;40756;-37.950;145.008;2023-04-30T00:17:39;101583.75;;;12.55;53.51
54870;BME280;40756;-37.950;145.008;2023-04-30T00:20:09;101582.93;;;12.95;52.82
54870;BME280;40756;-37.950;145.008;2023-04-30T00:22:39;101582.26;;;12.82;53.44
54870;BME280;40756;-37.950;145.008;2023-04-30T00:25:09;101579.63;;;12.92;53.31
54870;BME280;40756;-37.950;145.008;2023-04-30T00:27:39;101576.87;;;12.71;53.85
54870;BME280;40756;-37.950;145.008;2023-04-30T00:30:09;101575.40;;;13.18;53.01
54870;BME280;40756;-37.950;145.008;2023-04-30T00:32:39;101571.26;;;13.34;53.03
54870;BME280;40756;-37.950;145.008;2023-04-30T00:35:09;101572.31;;;13.43;52.84
54870;BME280;40756;-37.950;145.008;2023-04-30T00:37:39;101571.68;;;13.64;52.34
54870;BME280;40756;-37.950;145.008;2023-04-30T00:40:10;101574.17;;;13.83;51.87
54870;BME280;40756;-37.950;145.008;2023-04-30T00:42:40;101573.13;;;13.75;52.50
54870;BME280;40756;-37.950;145.008;2023-04-30T00:45:10;101573.31;;;13.37;51.85
54870;BME280;40756;-37.950;145.008;2023-04-30T00:47:40;101571.48;;;12.46;54.14
54870;BME280;40756;-37.950;145.008;2023-04-30T00:50:09;101569.24;;;13.53;52.02
54870;BME280;40756;-37.950;145.008;2023-04-30T00:52:39;101570.95;;;13.04;52.99
54870;BME280;40756;-37.950;145.008;2023-04-30T00:55:09;101568.57;;;13.69;52.70
54870;BME280;40756;-37.950;145.008;2023-04-30T00:57:40;101569.35;;;13.10;53.81
54870;BME280;40756;-37.950;145.008;2023-04-30T01:00:10;101569.74;;;12.70;53.97
54870;BME280;40756;-37.950;145.008;2023-04-30T01:02:40;101570.09;;;13.43;54.69
54870;BME280;40756;-37.950;145.008;2023-04-30T01:05:10;101570.09;;;13.91;54.34
54870;BME280;40756;-37.950;145.008;2023-04-30T01:07:39;101569.96;;;13.46;56.17
54870;BME280;40756;-37.950;145.008;2023-04-30T01:10:10;101568.33;;;13.40;55.75
54870;BME280;40756;-37.950;145.008;2023-04-30T01:12:45;101565.75;;;13.54;54.58
54870;BME280;40756;-37.950;145.008;2023-04-30T01:15:22;101564.25;;;14.38;53.71
54870;BME280;40756;-37.950;145.008;2023-04-30T01:17:58;101568.66;;;14.75;52.54
54870;BME280;40756;-37.950;145.008;2023-04-30T01:20:32;101570.60;;;14.47;53.23
54870;BME280;40756;-37.950;145.008;2023-04-30T01:23:13;101570.96;;;14.49;53.19
54870;BME280;40756;-37.950;145.008;2023-04-30T01:26:03;101571.78;;;13.26;56.04
54870;BME280;40756;-37.950;145.008;2023-04-30T01:28:36;101563.33;;;14.31;54.73
54870;BME280;40756;-37.950;145.008;2023-04-30T01:31:13;101557.63;;;14.75;53.21
54870;BME280;40756;-37.950;145.008;2023-04-30T01:33:43;101553.39;;;14.52;53.05
54870;BME280;40756;-37.950;145.008;2023-04-30T01:36:23;101551.15;;;14.72;51.80
54870;BME280;40756;-37.950;145.008;2023-04-30T01:39:11;101554.31;;;13.46;54.74
54870;BME280;40756;-37.950;145.008;2023-04-30T01:41:50;101556.54;;;14.28;54.09
54870;BME280;40756;-37.950;145.008;2023-04-30T01:44:35;101550.51;;;15.08;50.41
54870;BME280;40756;-37.950;145.008;2023-04-30T01:47:29;101549.30;;;15.43;49.41
54870;BME280;40756;-37.950;145.008;2023-04-30T01:50:16;101549.21;;;13.81;49.97
54870;BME280;40756;-37.950;145.008;2023-04-30T01:52:52;101544.28;;;13.73;50.47
54870;BME280;40756;-37.950;145.008;2023-04-30T01:55:29;101538.66;;;14.46;50.00
54870;BME280;40756;-37.950;145.008;2023-04-30T01:58:04;101532.13;;;14.75;48.75
54870;BME280;40756;-37.950;145.008;2023-04-30T02:00:34;101519.64;;;15.64;45.86
54870;BME280;40756;-37.950;145.008;2023-04-30T02:03:04;101512.34;;;15.48;45.86
54870;BME280;40756;-37.950;145.008;2023-04-30T02:05:34;101511.92;;;14.01;47.80
54870;BME280;40756;-37.950;145.008;2023-04-30T02:08:04;101510.10;;;14.30;48.28
54870;BME280;40756;-37.950;145.008;2023-04-30T02:10:33;101508.70;;;15.15;47.22
54870;BME280;40756;-37.950;145.008;2023-04-30T02:13:03;101497.79;;;15.40;45.29
54870;BME280;40756;-37.950;145.008;2023-04-30T02:15:32;101492.44;;;15.62;45.61
54870;BME280;40756;-37.950;145.008;2023-04-30T02:18:02;101486.43;;;15.27;45.21
54870;BME280;40756;-37.950;145.008;2023-04-30T02:20:31;101477.05;;;15.80;44.28
54870;BME280;40756;-37.950;145.008;2023-04-30T02:23:01;101474.47;;;15.65;44.34
54870;BME280;40756;-37.950;145.008;2023-04-30T02:25:31;101467.49;;;15.29;44.84
54870;BME280;40756;-37.950;145.008;2023-04-30T02:28:00;101463.04;;;15.99;43.01
54870;BME280;40756;-37.950;145.008;2023-04-30T02:30:30;101457.90;;;16.27;43.02
54870;BME280;40756;-37.950;145.008;2023-04-30T02:32:59;101449.70;;;17.03;41.95
54870;BME280;40756;-37.950;145.008;2023-04-30T02:35:29;101448.22;;;16.26;42.20
54870;BME280;40756;-37.950;145.008;2023-04-30T02:37:58;101444.27;;;17.78;40.21
54870;BME280;40756;-37.950;145.008;2023-04-30T02:40:28;101439.78;;;17.42;38.43
54870;BME280;40756;-37.950;145.008;2023-04-30T02:42:57;101429.37;;;16.89;39.02
54870;BME280;40756;-37.950;145.008;2023-04-30T02:45:27;101429.15;;;17.81;37.78
54870;BME280;40756;-37.950;145.008;2023-04-30T02:47:56;101425.66;;;16.94;38.80
54870;BME280;40756;-37.950;145.008;2023-04-30T02:50:26;101422.89;;;16.59;37.67
54870;BME280;40756;-37.950;145.008;2023-04-30T02:52:55;101422.07;;;17.09;38.83
54870;BME280;40756;-37.950;145.008;2023-04-30T02:55:25;101414.34;;;17.36;39.05
54870;BME280;40756;-37.950;145.008;2023-04-30T02:57:54;101414.20;;;16.34;39.68
54870;BME280;40756;-37.950;145.008;2023-04-30T03:00:24;101415.09;;;17.03;39.15
54870;BME280;40756;-37.950;145.008;2023-04-30T03:02:53;101405.59;;;16.92;38.41
54870;BME280;40756;-37.950;145.008;2023-04-30T03:05:24;101405.32;;;15.96;39.68
54870;BME280;40756;-37.950;145.008;2023-04-30T03:07:54;101404.39;;;16.80;38.95
54870;BME280;40756;-37.950;145.008;2023-04-30T03:10:23;101400.39;;;16.50;39.29
54870;BME280;40756;-37.950;145.008;2023-04-30T03:12:53;101398.95;;;16.25;39.72
54870;BME280;40756;-37.950;145.008;2023-04-30T03:15:22;101392.64;;;16.28;39.58
54870;BME280;40756;-37.950;145.008;2023-04-30T03:17:52;101389.87;;;16.41;39.12
54870;BME280;40756;-37.950;145.008;2023-04-30T03:20:22;101388.04;;;15.71;39.75
54870;BME280;40756;-37.950;145.008;2023-04-30T03:22:51;101382.26;;;15.87;41.01
54870;BME280;40756;-37.950;145.008;2023-04-30T03:25:20;101383.01;;;16.15;39.90
54870;BME280;40756;-37.950;145.008;2023-04-30T03:27:50;101382.58;;;16.21;41.16
54870;BME280;40756;-37.950;145.008;2023-04-30T03:30:20;101380.78;;;16.57;39.79
54870;BME280;40756;-37.950;145.008;2023-04-30T03:32:49;101381.97;;;16.52;39.36
54870;BME280;40756;-37.950;145.008;2023-04-30T03:35:18;101380.93;;;15.89;39.86
54870;BME280;40756;-37.950;145.008;2023-04-30T03:37:53;101381.86;;;16.44;38.48
54870;BME280;40756;-37.950;145.008;2023-04-30T03:40:23;101377.22;;;17.04;37.81
54870;BME280;40756;-37.950;145.008;2023-04-30T03:42:52;101376.65;;;16.38;38.48
54870;BME280;40756;-37.950;145.008;2023-04-30T03:45:22;101372.07;;;16.70;36.99
54870;BME280;40756;-37.950;145.008;2023-04-30T03:47:52;101369.15;;;16.72;36.33
54870;BME280;40756;-37.950;145.008;2023-04-30T03:50:21;101369.05;;;16.67;37.19
54870;BME280;40756;-37.950;145.008;2023-04-30T03:52:51;101366.88;;;16.45;36.66
54870;BME280;40756;-37.950;145.008;2023-04-30T03:55:20;101363.79;;;15.85;38.49
54870;BME280;40756;-37.950;145.008;2023-04-30T03:57:50;101368.79;;;15.83;37.81
54870;BME280;40756;-37.950;145.008;2023-04-30T04:00:20;101367.47;;;16.08;38.10
54870;BME280;40756;-37.950;145.008;2023-04-30T04:02:50;101364.70;;;16.47;36.80
54870;BME280;40756;-37.950;145.008;2023-04-30T04:05:19;101366.47;;;16.15;37.39
54870;BME280;40756;-37.950;145.008;2023-04-30T04:07:50;101365.40;;;16.34;37.16
54870;BME280;40756;-37.950;145.008;2023-04-30T04:10:20;101360.45;;;16.65;37.28
54870;BME280;40756;-37.950;145.008;2023-04-30T04:12:49;101362.25;;;15.93;36.98
54870;BME280;40756;-37.950;145.008;2023-04-30T04:15:19;101365.28;;;16.26;36.99
54870;BME280;40756;-37.950;145.008;2023-04-30T04:17:48;101361.17;;;17.19;36.38
54870;BME280;40756;-37.950;145.008;2023-04-30T04:20:18;101364.56;;;15.77;37.95
54870;BME280;40756;-37.950;145.008;2023-04-30T04:22:47;101364.67;;;16.38;37.72
54870;BME280;40756;-37.950;145.008;2023-04-30T04:25:17;101359.70;;;17.11;36.88
54870;BME280;40756;-37.950;145.008;2023-04-30T04:27:47;101350.62;;;16.94;36.57
54870;BME280;40756;-37.950;145.008;2023-04-30T04:30:17;101346.27;;;16.58;37.15
54870;BME280;40756;-37.950;145.008;2023-04-30T04:32:46;101353.22;;;15.76;38.43
54870;BME280;40756;-37.950;145.008;2023-04-30T04:35:16;101353.03;;;16.38;37.04
54870;BME280;40756;-37.950;145.008;2023-04-30T04:37:46;101354.50;;;16.20;37.62
54870;BME280;40756;-37.950;145.008;2023-04-30T04:40:15;101351.43;;;16.19;38.16
54870;BME280;40756;-37.950;145.008;2023-04-30T04:42:47;101349.62;;;16.81;37.10
54870;BME280;40756;-37.950;145.008;2023-04-30T04:45:16;101350.64;;;15.89;38.34
54870;BME280;40756;-37.950;145.008;2023-04-30T04:47:46;101350.24;;;16.16;38.46
54870;BME280;40756;-37.950;145.008;2023-04-30T04:50:16;101355.68;;;16.21;38.20
54870;BME280;40756;-37.950;145.008;2023-04-30T04:52:46;101350.03;;;17.19;37.51
54870;BME280;40756;-37.950;145.008;2023-04-30T04:55:35;101347.25;;;16.95;37.90
54870;BME280;40756;-37.950;145.008;2023-04-30T04:58:05;101345.22;;;16.99;36.85
54870;BME280;40756;-37.950;145.008;2023-04-30T05:00:34;101353.28;;;16.24;37.16
54870;BME280;40756;-37.950;145.008;2023-04-30T05:03:03;101345.82;;;16.63;37.65
54870;BME280;40756;-37.950;145.008;2023-04-30T05:05:33;101343.78;;;16.92;36.13
54870;BME280;40756;-37.950;145.008;2023-04-30T05:08:04;101351.01;;;16.21;37.90
54870;BME280;40756;-37.950;145.008;2023-04-30T05:10:33;101348.08;;;16.83;36.98
54870;BME280;40756;-37.950;145.008;2023-04-30T05:13:03;101348.31;;;16.67;37.57
54870;BME280;40756;-37.950;145.008;2023-04-30T05:15:32;101349.08;;;17.22;37.16
54870;BME280;40756;-37.950;145.008;2023-04-30T05:18:02;101345.64;;;16.91;38.23
54870;BME280;40756;-37.950;145.008;2023-04-30T05:20:31;101347.55;;;17.04;37.44
54870;BME280;40756;-37.950;145.008;2023-04-30T05:23:01;101349.23;;;16.75;36.88
54870;BME280;40756;-37.950;145.008;2023-04-30T05:25:31;101353.35;;;16.79;37.14
54870;BME280;40756;-37.950;145.008;2023-04-30T05:28:00;101354.16;;;17.07;36.28
54870;BME280;40756;-37.950;145.008;2023-04-30T05:30:30;101352.80;;;16.93;37.55
54870;BME280;40756;-37.950;145.008;2023-04-30T05:32:59;101356.03;;;16.83;37.29
54870;BME280;40756;-37.950;145.008;2023-04-30T05:35:29;101363.17;;;16.38;38.57
54870;BME280;40756;-37.950;145.008;2023-04-30T05:37:58;101364.64;;;16.41;38.71
54870;BME280;40756;-37.950;145.008;2023-04-30T05:40:28;101363.53;;;16.77;38.72
54870;BME280;40756;-37.950;145.008;2023-04-30T05:42:57;101362.20;;;16.82;38.59
54870;BME280;40756;-37.950;145.008;2023-04-30T05:45:27;101362.26;;;16.99;37.54
54870;BME280;40756;-37.950;145.008;2023-04-30T05:47:56;101360.29;;;16.35;37.86
54870;BME280;40756;-37.950;145.008;2023-04-30T05:50:26;101359.69;;;16.36;38.72
54870;BME280;40756;-37.950;145.008;2023-04-30T05:52:56;101357.56;;;17.09;38.26
54870;BME280;40756;-37.950;145.008;2023-04-30T05:55:25;101359.77;;;17.31;37.58
54870;BME280;40756;-37.950;145.008;2023-04-30T05:57:55;101356.72;;;17.61;37.08
54870;BME280;40756;-37.950;145.008;2023-04-30T06:00:25;101355.72;;;17.85;36.04
54870;BME280;40756;-37.950;145.008;2023-04-30T06:02:54;101355.53;;;17.59;36.11
54870;BME280;40756;-37.950;145.008;2023-04-30T06:05:24;101356.25;;;17.35;36.88
54870;BME280;40756;-37.950;145.008;2023-04-30T06:07:53;101351.66;;;17.26;37.49
54870;BME280;40756;-37.950;145.008;2023-04-30T06:10:23;101353.36;;;17.50;36.94
54870;BME280;40756;-37.950;145.008;2023-04-30T06:12:53;101353.39;;;17.79;36.88
54870;BME280;40756;-37.950;145.008;2023-04-30T06:15:23;101350.68;;;18.10;35.68
54870;BME280;40756;-37.950;145.008;2023-04-30T06:17:52;101352.95;;;18.05;36.01
54870;BME280;40756;-37.950;145.008;2023-04-30T06:20:22;101350.79;;;18.54;35.87
54870;BME280;40756;-37.950;145.008;2023-04-30T06:22:51;101354.80;;;17.46;37.58
54870;BME280;40756;-37.950;145.008;2023-04-30T06:25:21;101352.05;;;18.00;37.12
54870;BME280;40756;-37.950;145.008;2023-04-30T06:27:50;101351.69;;;18.41;35.44
54870;BME280;40756;-37.950;145.008;2023-04-30T06:30:20;101356.65;;;18.12;35.90
54870;BME280;40756;-37.950;145.008;2023-04-30T06:32:49;101357.50;;;18.04;36.52
54870;BME280;40756;-37.950;145.008;2023-04-30T06:35:19;101358.84;;;16.66;38.63
54870;BME280;40756;-37.950;145.008;2023-04-30T06:37:49;101362.32;;;16.99;39.05
54870;BME280;40756;-37.950;145.008;2023-04-30T06:40:18;101365.03;;;17.66;38.32
54870;BME280;40756;-37.950;145.008;2023-04-30T06:42:48;101365.30;;;17.35;38.40
54870;BME280;40756;-37.950;145.008;2023-04-30T06:45:17;101361.30;;;16.70;38.78
54870;BME280;40756;-37.950;145.008;2023-04-30T06:47:47;101359.19;;;16.26;39.26
54870;BME280;40756;-37.950;145.008;2023-04-30T06:50:17;101359.16;;;16.76;38.97
54870;BME280;40756;-37.950;145.008;2023-04-30T06:52:46;101358.96;;;16.60;39.17
54870;BME280;40756;-37.950;145.008;2023-04-30T06:55:16;101360.25;;;16.95;39.12
54870;BME280;40756;-37.950;145.008;2023-04-30T06:57:45;101360.77;;;16.74;39.30
54870;BME280;40756;-37.950;145.008;2023-04-30T07:00:15;101361.10;;;16.34;39.64
54870;BME280;40756;-37.950;145.008;2023-04-30T07:02:44;101361.80;;;16.36;39.28
54870;BME280;40756;-37.950;145.008;2023-04-30T07:05:14;101364.15;;;16.51;38.99
54870;BME280;40756;-37.950;145.008;2023-04-30T07:07:43;101363.58;;;16.04;39.53
54870;BME280;40756;-37.950;145.008;2023-04-30T07:10:13;101361.95;;;16.23;39.32
54870;BME280;40756;-37.950;145.008;2023-04-30T07:12:44;101357.61;;;15.41;40.47
54870;BME280;40756;-37.950;145.008;2023-04-30T07:15:13;101355.84;;;16.25;40.26
54870;BME280;40756;-37.950;145.008;2023-04-30T07:17:43;101356.47;;;15.98;40.35
54870;BME280;40756;-37.950;145.008;2023-04-30T07:20:13;101357.11;;;16.34;40.74
54870;BME280;40756;-37.950;145.008;2023-04-30T07:22:43;101356.11;;;15.91;40.79
54870;BME280;40756;-37.950;145.008;2023-04-30T07:25:13;101355.35;;;16.22;40.62
54870;BME280;40756;-37.950;145.008;2023-04-30T07:27:42;101353.75;;;16.04;41.16
54870;BME280;40756;-37.950;145.008;2023-04-30T07:30:12;101354.93;;;15.89;41.34
54870;BME280;40756;-37.950;145.008;2023-04-30T07:32:41;101352.06;;;15.98;41.75
54870;BME280;40756;-37.950;145.008;2023-04-30T07:35:11;101352.26;;;15.93;41.81
54870;BME280;40756;-37.950;145.008;2023-04-30T07:37:41;101356.57;;;15.69;42.18
54870;BME280;40756;-37.950;145.008;2023-04-30T07:40:11;101355.63;;;15.49;42.85
54870;BME280;40756;-37.950;145.008;2023-04-30T07:42:41;101358.63;;;15.42;43.00
54870;BME280;40756;-37.950;145.008;2023-04-30T07:45:11;101361.31;;;15.29;43.37
54870;BME280;40756;-37.950;145.008;2023-04-30T07:47:40;101360.62;;;15.09;43.22
54870;BME280;40756;-37.950;145.008;2023-04-30T07:50:15;101357.85;;;15.16;43.33
54870;BME280;40756;-37.950;145.008;2023-04-30T07:52:47;101362.10;;;14.77;43.55
54870;BME280;40756;-37.950;145.008;2023-04-30T07:55:17;101367.24;;;14.64;44.06
54870;BME280;40756;-37.950;145.008;2023-04-30T07:57:46;101366.38;;;14.72;44.02
54870;BME280;40756;-37.950;145.008;2023-04-30T08:00:16;101373.76;;;14.43;44.11
54870;BME280;40756;-37.950;145.008;2023-04-30T08:02:46;101378.76;;;14.21;44.24
54870;BME280;40756;-37.950;145.008;2023-04-30T08:05:15;101378.79;;;13.86;44.90
54870;BME280;40756;-37.950;145.008;2023-04-30T08:07:45;101375.60;;;14.10;46.79
54870;BME280;40756;-37.950;145.008;2023-04-30T08:10:14;101374.67;;;14.01;47.20
54870;BME280;40756;-37.950;145.008;2023-04-30T08:12:45;101381.57;;;13.98;44.54
54870;BME280;40756;-37.950;145.008;2023-04-30T08:15:15;101386.93;;;13.79;44.64
54870;BME280;40756;-37.950;145.008;2023-04-30T08:17:44;101388.48;;;13.59;44.92
54870;BME280;40756;-37.950;145.008;2023-04-30T08:20:14;101390.62;;;13.70;45.11
54870;BME280;40756;-37.950;145.008;2023-04-30T08:22:45;101391.10;;;13.62;45.57
54870;BME280;40756;-37.950;145.008;2023-04-30T08:25:15;101389.98;;;13.56;45.97
54870;BME280;40756;-37.950;145.008;2023-04-30T08:27:44;101392.93;;;13.44;46.16
54870;BME280;40756;-37.950;145.008;2023-04-30T08:30:14;101400.25;;;13.28;45.81
54870;BME280;40756;-37.950;145.008;2023-04-30T08:32:44;101403.73;;;13.06;46.43
54870;BME280;40756;-37.950;145.008;2023-04-30T08:35:13;101406.50;;;13.13;46.88
54870;BME280;40756;-37.950;145.008;2023-04-30T08:37:43;101404.59;;;13.47;46.21
54870;BME280;40756;-37.950;145.008;2023-04-30T08:40:13;101404.20;;;13.44;46.09
54870;BME280;40756;-37.950;145.008;2023-04-30T08:42:48;101406.82;;;13.25;46.40
54870;BME280;40756;-37.950;145.008;2023-04-30T08:45:18;101407.45;;;12.72;46.89
54870;BME280;40756;-37.950;145.008;2023-04-30T08:47:48;101413.72;;;12.63;46.95
54870;BME280;40756;-37.950;145.008;2023-04-30T08:50:18;101421.27;;;12.50;47.94
54870;BME280;40756;-37.950;145.008;2023-04-30T08:52:47;101427.21;;;12.85;47.72
54870;BME280;40756;-37.950;145.008;2023-04-30T08:55:17;101426.97;;;12.92;47.48
54870;BME280;40756;-37.950;145.008;2023-04-30T08:57:47;101430.78;;;12.94;47.15
54870;BME280;40756;-37.950;145.008;2023-04-30T09:00:16;101435.55;;;12.75;46.90
54870;BME280;40756;-37.950;145.008;2023-04-30T09:02:47;101438.78;;;12.81;47.03
54870;BME280;40756;-37.950;145.008;2023-04-30T09:05:17;101441.70;;;12.84;47.06
54870;BME280;40756;-37.950;145.008;2023-04-30T09:07:47;101443.76;;;12.86;46.66
54870;BME280;40756;-37.950;145.008;2023-04-30T09:10:18;101444.10;;;12.86;46.71
54870;BME280;40756;-37.950;145.008;2023-04-30T09:13:00;101447.07;;;12.77;47.20
54870;BME280;40756;-37.950;145.008;2023-04-30T09:15:30;101448.10;;;12.79;47.29
54870;BME280;40756;-37.950;145.008;2023-04-30T09:18:10;101446.05;;;12.76;47.32
54870;BME280;40756;-37.950;145.008;2023-04-30T09:20:54;101446.48;;;12.67;47.42
54870;BME280;40756;-37.950;145.008;2023-04-30T09:23:24;101448.17;;;12.44;47.61
54870;BME280;40756;-37.950;145.008;2023-04-30T09:25:54;101445.51;;;12.53;47.57
54870;BME280;40756;-37.950;145.008;2023-04-30T09:28:24;101445.99;;;12.49;47.75
54870;BME280;40756;-37.950;145.008;2023-04-30T09:30:56;101439.89;;;12.38;47.63
54870;BME280;40756;-37.950;145.008;2023-04-30T09:33:26;101440.28;;;12.22;48.06
54870;BME280;40756;-37.950;145.008;2023-04-30T09:35:55;101440.43;;;12.17;48.14
54870;BME280;40756;-37.950;145.008;2023-04-30T09:38:29;101438.71;;;12.09;48.30
54870;BME280;40756;-37.950;145.008;2023-04-30T09:41:00;101439.28;;;11.96;48.70
54870;BME280;40756;-37.950;145.008;2023-04-30T09:43:29;101441.98;;;11.96;48.83
54870;BME280;40756;-37.950;145.008;2023-04-30T09:46:00;101440.14;;;12.04;49.43
54870;BME280;40756;-37.950;145.008;2023-04-30T09:48:29;101442.68;;;12.16;49.92
54870;BME280;40756;-37.950;145.008;2023-04-30T09:50:59;101445.16;;;11.99;50.06
54870;BME280;40756;-37.950;145.008;2023-04-30T09:53:32;101447.78;;;11.66;50.53
54870;BME280;40756;-37.950;145.008;2023-04-30T09:56:03;101448.18;;;11.95;50.25
54870;BME280;40756;-37.950;145.008;2023-04-30T09:58:37;101447.19;;;11.91;50.25
54870;BME280;40756;-37.950;145.008;2023-04-30T10:01:08;101445.31;;;11.62;50.95
54870;BME280;40756;-37.950;145.008;2023-04-30T10:03:40;101442.08;;;12.47;50.68
54870;BME280;40756;-37.950;145.008;2023-04-30T10:06:13;101438.96;;;12.22;50.42
54870;BME280;40756;-37.950;145.008;2023-04-30T10:08:45;101441.61;;;12.55;50.48
54870;BME280;40756;-37.950;145.008;2023-04-30T10:11:18;101444.08;;;12.22;50.78
54870;BME280;40756;-37.950;145.008;2023-04-30T10:13:54;101445.45;;;11.97;50.95
54870;BME280;40756;-37.950;145.008;2023-04-30T10:16:35;101441.78;;;12.28;50.75
54870;BME280;40756;-37.950;145.008;2023-04-30T10:19:09;101442.45;;;12.29;51.07
54870;BME280;40756;-37.950;145.008;2023-04-30T10:21:41;101442.41;;;12.37;51.12
54870;BME280;40756;-37.950;145.008;2023-04-30T10:24:14;101441.94;;;12.58;50.66
54870;BME280;40756;-37.950;145.008;2023-04-30T10:26:50;101439.46;;;12.72;50.44
54870;BME280;40756;-37.950;145.008;2023-04-30T10:29:19;101439.91;;;12.57;51.08
54870;BME280;40756;-37.950;145.008;2023-04-30T10:31:50;101436.26;;;12.45;51.51
54870;BME280;40756;-37.950;145.008;2023-04-30T10:34:28;101433.19;;;12.54;51.47
54870;BME280;40756;-37.950;145.008;2023-04-30T10:37:06;101437.58;;;12.79;51.65
54870;BME280;40756;-37.950;145.008;2023-04-30T10:39:38;101433.96;;;12.42;51.81
54870;BME280;40756;-37.950;145.008;2023-04-30T10:42:10;101431.26;;;12.85;52.14
54870;BME280;40756;-37.950;145.008;2023-04-30T10:44:40;101430.90;;;12.24;52.07
54870;BME280;40756;-37.950;145.008;2023-04-30T10:47:10;101432.99;;;11.83;52.68
54870;BME280;40756;-37.950;145.008;2023-04-30T10:49:39;101431.97;;;12.04;51.93
54870;BME280;40756;-37.950;145.008;2023-04-30T10:52:13;101430.70;;;12.16;51.95
54870;BME280;40756;-37.950;145.008;2023-04-30T10:54:54;101430.72;;;12.35;51.76
54870;BME280;40756;-37.950;145.008;2023-04-30T10:57:24;101431.49;;;12.38;51.75
54870;BME280;40756;-37.950;145.008;2023-04-30T11:00:23;101432.02;;;12.41;51.52
54870;BME280;40756;-37.950;145.008;2023-04-30T11:02:57;101432.39;;;12.70;51.30
54870;BME280;40756;-37.950;145.008;2023-04-30T11:05:39;101430.26;;;12.49;51.15
54870;BME280;40756;-37.950;145.008;2023-04-30T11:08:11;101427.57;;;12.36;51.41
54870;BME280;40756;-37.950;145.008;2023-04-30T11:10:57;101426.60;;;12.44;51.25
54870;BME280;40756;-37.950;145.008;2023-04-30T11:13:28;101427.97;;;12.34;51.32
54870;BME280;40756;-37.950;145.008;2023-04-30T11:16:03;101427.20;;;12.28;51.88
54870;BME280;40756;-37.950;145.008;2023-04-30T11:18:33;101429.42;;;12.40;51.45
54870;BME280;40756;-37.950;145.008;2023-04-30T11:21:03;101433.77;;;12.35;51.58
54870;BME280;40756;-37.950;145.008;2023-04-30T11:23:34;101434.73;;;12.38;51.52
54870;BME280;40756;-37.950;145.008;2023-04-30T11:26:04;101430.26;;;12.40;51.52
54870;BME280;40756;-37.950;145.008;2023-04-30T11:28:35;101429.35;;;12.35;51.65
54870;BME280;40756;-37.950;145.008;2023-04-30T11:31:06;101430.73;;;12.33;51.58
54870;BME280;40756;-37.950;145.008;2023-04-30T11:33:35;101427.19;;;12.16;51.94
54870;BME280;40756;-37.950;145.008;2023-04-30T11:36:05;101427.11;;;12.02;52.30
54870;BME280;40756;-37.950;145.008;2023-04-30T11:38:36;101433.24;;;11.91;52.45
54870;BME280;40756;-37.950;145.008;2023-04-30T11:41:07;101435.94;;;11.69;52.91
54870;BME280;40756;-37.950;145.008;2023-04-30T11:43:39;101440.02;;;12.08;53.20
54870;BME280;40756;-37.950;145.008;2023-04-30T11:46:11;101440.86;;;12.13;55.91
54870;BME280;40756;-37.950;145.008;2023-04-30T11:48:43;101441.15;;;12.55;52.82
54870;BME280;40756;-37.950;145.008;2023-04-30T11:51:17;101440.57;;;12.63;50.96
54870;BME280;40756;-37.950;145.008;2023-04-30T11:53:48;101442.44;;;12.45;50.96
54870;BME280;40756;-37.950;145.008;2023-04-30T11:56:19;101440.89;;;12.40;50.99
54870;BME280;40756;-37.950;145.008;2023-04-30T11:58:50;101440.14;;;12.20;51.35
54870;BME280;40756;-37.950;145.008;2023-04-30T12:01:20;101440.61;;;11.99;51.90
54870;BME280;40756;-37.950;145.008;2023-04-30T12:03:50;101444.35;;;12.12;52.36
54870;BME280;40756;-37.950;145.008;2023-04-30T12:06:25;101443.04;;;11.75;52.61
54870;BME280;40756;-37.950;145.008;2023-04-30T12:08:55;101439.29;;;11.97;52.75
54870;BME280;40756;-37.950;145.008;2023-04-30T12:11:26;101439.15;;;11.45;53.46
54870;BME280;40756;-37.950;145.008;2023-04-30T12:14:02;101438.24;;;11.90;53.74
54870;BME280;40756;-37.950;145.008;2023-04-30T12:16:41;101440.11;;;11.89;53.93
54870;BME280;40756;-37.950;145.008;2023-04-30T12:19:11;101438.26;;;11.38;54.12
54870;BME280;40756;-37.950;145.008;2023-04-30T12:21:42;101438.84;;;11.97;53.81
54870;BME280;40756;-37.950;145.008;2023-04-30T12:24:12;101433.90;;;11.83;53.94
54870;BME280;40756;-37.950;145.008;2023-04-30T12:26:42;101434.40;;;11.49;53.88
54870;BME280;40756;-37.950;145.008;2023-04-30T12:29:15;101430.00;;;11.82;53.75
54870;BME280;40756;-37.950;145.008;2023-04-30T12:31:49;101427.54;;;11.94;53.88
54870;BME280;40756;-37.950;145.008;2023-04-30T12:34:18;101425.26;;;11.98;53.76
54870;BME280;40756;-37.950;145.008;2023-04-30T12:36:48;101420.86;;;14.32;52.00
54870;BME280;40756;-37.950;145.008;2023-04-30T12:39:18;101421.65;;;14.55;46.93